Главная страница
METAR-TAF:

METAR-TAF

Аэропорты :

Вено, Микронезия

широта: 07-28N, долгота: 151-51E, высота над уровнем моря: 3 м

Текущие метеонаблюдения

Эта сводка был подготовлена 1 час и 2 минут назад, в 05:52 UTC
Ветер 4 Узел переменных направлений
Температура 31°C
Влажность 79%
Давление 1007 hPa
Видимость: 24.1 км
небольшая облачность на высоте 1400 фута
Рассеянная облачность на высоте 28000 фута

METAR: PTKK 200552Z VRB04KT 15SM FEW014 BKN280 31/27 A2975 RMK SLP078 8/101 T03110267 10331 20304 55005

Время: 16:54 (06:54 UTC)

Прогноз

Эта сводка был подготовлена 1 час и 34 минут назад, в 05:20 UTC
Прогноз действительный с 20-го 06 UTC до 21-го 06 UTC
Ветер 7 Узел от западный
Видимость: 10 км
небольшая облачность на высоте 1400 фута
Отдельные облака на высоте 3000 фута

TAF: PTKK 200520Z 2006/2106 28007KT P6SM FEW014 SCT030

Метеонаблюдения и прогнозы для более 4000 аэропортов (сводки METAR и TAF).

Имеющиеся станции представлены на карте желтыми и красными точками.

Чтобы увидеть название станции, наведите на нее мышь.

Затем щелкните, чтобы увидеть метеонаблюдения и метеопрогнозы.

Управление картой: чтобы увеличить масштаб, щелкните зеленые кнопки с черным крестиком; чтобы уменьшить масштаб, щелкните зеленую кнопку с тире; для просмотра соседних карт щелкайте зеленые стрелки.


METAR-TAF: